Time;durP1;ratioP1;P1;durP2;ratioP2;P2;SDS_P1;SDS_P2;PMS_P1;PMS_P2;Temp;Humidity;BMP_temperature;BMP_pressure;BME280_temperature;BME280_humidity;BME280_pressure;Samples;Min_cycle;Max_cycle;Signal;HPM_P1;HPM_P2
2022/12/28 00:01:27;;;;;;;12.00;6.80;;;5.50;99.90;;;;;;5112828;27;20365;-46
2022/12/28 00:03:54;;;;;;;12.65;8.25;;;5.40;99.90;;;;;;5110444;27;20043;-44
2022/12/28 00:06:22;;;;;;;12.48;7.13;;;5.40;99.90;;;;;;5112192;27;20034;-45
2022/12/28 00:08:48;;;;;;;13.52;7.35;;;5.40;99.90;;;;;;5088830;27;20047;-45
2022/12/28 00:11:17;;;;;;;14.38;8.70;;;5.50;99.90;;;;;;5115576;27;20066;-47
2022/12/28 00:13:43;;;;;;;13.70;8.07;;;5.40;99.90;;;;;;5112328;27;20039;-47
2022/12/28 00:16:20;;;;;;;13.68;8.38;;;5.40;99.90;;;;;;5111059;27;20449;-45
2022/12/28 00:18:46;;;;;;;12.95;9.15;;;5.50;99.90;;;;;;5117768;27;20092;-47
2022/12/28 00:21:12;;;;;;;12.65;8.93;;;5.50;99.90;;;;;;5113765;27;20039;-45
2022/12/28 00:23:38;;;;;;;16.73;8.63;;;5.50;99.90;;;;;;5090966;27;20066;-49
2022/12/28 00:26:08;;;;;;;17.33;9.07;;;5.50;99.90;;;;;;5115275;27;20363;-45
2022/12/28 00:28:34;;;;;;;13.68;9.20;;;5.40;99.90;;;;;;5111987;27;20039;-50
2022/12/28 00:31:00;;;;;;;13.52;9.30;;;5.50;99.90;;;;;;5109444;27;20785;-44
2022/12/28 00:33:25;;;;;;;13.18;8.57;;;5.50;99.90;;;;;;5110678;27;20225;-45
2022/12/28 00:35:59;;;;;;;13.93;8.95;;;5.40;99.90;;;;;;5094567;27;20082;-47
2022/12/28 00:38:26;;;;;;;15.88;9.48;;;5.40;99.90;;;;;;5120306;27;20161;-45
2022/12/28 00:40:52;;;;;;;12.95;9.55;;;5.50;99.90;;;;;;5113581;27;20046;-46
2022/12/28 00:43:18;;;;;;;22.50;9.43;;;5.40;99.90;;;;;;5110986;27;20406;-46
2022/12/28 00:45:45;;;;;;;17.73;9.73;;;5.50;99.90;;;;;;5105919;27;20118;-47
2022/12/28 00:48:11;;;;;;;15.80;9.50;;;5.50;99.90;;;;;;5107501;27;20038;-46
2022/12/28 00:50:36;;;;;;;13.77;9.30;;;5.50;99.90;;;;;;5108230;27;20478;-48
2022/12/28 00:53:02;;;;;;;15.43;9.30;;;5.50;99.90;;;;;;5113714;27;20035;-48
2022/12/28 00:55:28;;;;;;;14.35;10.23;;;5.50;99.90;;;;;;5117597;27;20069;-46
2022/12/28 00:57:57;;;;;;;11.85;9.85;;;5.60;99.90;;;;;;5114176;27;20295;-46
2022/12/28 01:00:22;;;;;;;14.93;9.63;;;5.50;99.90;;;;;;5109602;27;20062;-46
2022/12/28 01:02:48;;;;;;;16.25;9.70;;;5.50;99.90;;;;;;5107699;27;20126;-45
2022/12/28 01:05:14;;;;;;;18.02;10.07;;;5.60;99.90;;;;;;5113614;27;20401;-49
2022/12/28 01:07:39;;;;;;;13.00;9.57;;;5.50;99.90;;;;;;5111905;27;20082;-47
2022/12/28 01:10:05;;;;;;;18.80;9.77;;;5.60;99.90;;;;;;5105830;27;20047;-47
2022/12/28 01:12:31;;;;;;;17.05;10.45;;;5.70;99.90;;;;;;5104906;27;20035;-51
2022/12/28 01:14:56;;;;;;;14.88;9.43;;;5.60;99.90;;;;;;5090343;27;20572;-47
2022/12/28 01:17:22;;;;;;;15.02;9.70;;;5.60;99.90;;;;;;5105247;27;20900;-46
2022/12/28 01:19:48;;;;;;;14.63;9.98;;;5.60;99.90;;;;;;5056840;27;20394;-48
2022/12/28 01:22:13;;;;;;;18.30;10.30;;;5.60;99.90;;;;;;5108088;27;20297;-48
2022/12/28 01:24:39;;;;;;;15.20;10.48;;;5.70;99.90;;;;;;5089607;27;20514;-49
2022/12/28 01:27:05;;;;;;;15.68;10.45;;;5.70;99.90;;;;;;5106274;27;20423;-50
2022/12/28 01:29:31;;;;;;;15.10;11.10;;;5.70;99.90;;;;;;5116011;27;20130;-49
2022/12/28 01:31:57;;;;;;;16.92;10.60;;;5.70;99.90;;;;;;5115470;27;20407;-45
2022/12/28 01:34:22;;;;;;;16.70;10.88;;;5.70;99.90;;;;;;5122248;27;20039;-49
2022/12/28 01:36:48;;;;;;;18.55;12.02;;;5.80;99.90;;;;;;5120902;27;20046;-48
2022/12/28 01:39:13;;;;;;;17.27;11.15;;;5.70;99.90;;;;;;5112814;27;20063;-46
2022/12/28 01:41:41;;;;;;;15.55;11.85;;;5.70;99.90;;;;;;5125285;27;20035;-45
2022/12/28 01:44:06;;;;;;;20.52;11.70;;;5.80;99.90;;;;;;5104988;27;20066;-48
2022/12/28 01:46:50;;;;;;;18.40;12.20;;;5.70;99.90;;;;;;5113742;27;20150;-52
2022/12/28 01:49:18;;;;;;;;;;;5.70;99.90;;;;;;5110227;27;20158;-48
2022/12/28 01:52:01;;;;;;;14.75;10.48;;;5.80;99.90;;;;;;5109384;27;20314;-49
2022/12/28 01:54:32;;;;;;;12.23;10.38;;;5.90;99.90;;;;;;5115258;27;20051;-47
2022/12/28 01:56:58;;;;;;;20.50;11.52;;;5.90;99.90;;;;;;5116213;27;20047;-46
2022/12/28 01:59:28;;;;;;;17.67;10.07;;;6.00;99.90;;;;;;5108880;27;20448;-47
2022/12/28 02:01:54;;;;;;;20.75;11.35;;;6.00;99.90;;;;;;5108845;27;20965;-49
2022/12/28 02:04:20;;;;;;;17.77;11.85;;;6.00;99.90;;;;;;5113254;27;20121;-52
2022/12/28 02:06:46;;;;;;;13.70;11.18;;;6.10;99.90;;;;;;5109161;27;20042;-48
2022/12/28 02:09:19;;;;;;;16.70;11.95;;;6.10;99.90;;;;;;5116044;27;20043;-49
2022/12/28 02:11:46;;;;;;;19.60;13.25;;;6.00;99.90;;;;;;5122703;27;20049;-47
2022/12/28 02:14:13;;;;;;;18.13;11.95;;;5.90;99.90;;;;;;5126524;27;20042;-48
2022/12/28 02:16:39;;;;;;;21.77;13.07;;;5.90;99.90;;;;;;5115066;27;20050;-47
2022/12/28 02:19:07;;;;;;;15.68;11.65;;;6.00;99.90;;;;;;5117983;27;20046;-47
2022/12/28 02:21:54;;;;;;;19.42;12.85;;;5.90;99.90;;;;;;5120804;27;20043;-45
2022/12/28 02:24:46;;;;;;;14.85;11.20;;;6.00;99.90;;;;;;5117576;27;20506;-46
2022/12/28 02:27:53;;;;;;;22.00;12.32;;;6.10;99.90;;;;;;5106587;27;20047;-49
2022/12/28 02:30:19;;;;;;;21.70;13.30;;;6.10;99.90;;;;;;5011942;28;20109;-48
2022/12/28 02:32:58;;;;;;;16.25;12.93;;;6.10;99.90;;;;;;5021453;28;20065;-48
2022/12/28 02:35:45;;;;;;;19.77;13.63;;;6.10;99.90;;;;;;5024951;28;20603;-50
2022/12/28 02:38:24;;;;;;;18.25;14.25;;;6.10;99.90;;;;;;5017941;28;20166;-48
2022/12/28 02:40:58;;;;;;;19.90;15.27;;;6.00;99.90;;;;;;4994359;28;20060;-48
2022/12/28 02:43:25;;;;;;;21.17;15.50;;;6.10;99.90;;;;;;5013719;28;20045;-47
2022/12/28 02:51:54;;;;;;;21.92;17.13;;;6.10;99.90;;;;;;4996559;28;20631;-44
2022/12/28 02:57:39;;;;;;;22.77;16.65;;;6.20;99.90;;;;;;5016114;28;19929;-49
2022/12/28 03:00:11;;;;;;;24.10;19.65;;;6.00;99.90;;;;;;5002887;28;20057;-47
2022/12/28 03:02:48;;;;;;;22.48;18.08;;;6.10;99.90;;;;;;5012898;28;20463;-47
2022/12/28 03:08:36;;;;;;;;;;;6.10;99.90;;;;;;5116682;27;20047;-46
2022/12/28 03:11:09;;;;;;;21.48;19.27;;;6.00;99.90;;;;;;5093333;27;20318;-46
2022/12/28 03:13:58;;;;;;;;;;;6.10;99.90;;;;;;5105458;27;20050;-46
2022/12/28 03:31:08;;;;;;;23.02;20.25;;;6.30;99.90;;;;;;4957639;28;20057;-48
2022/12/28 03:33:38;;;;;;;26.27;20.65;;;6.30;99.90;;;;;;4957323;28;20050;-46
2022/12/28 03:36:28;;;;;;;25.73;18.75;;;6.10;99.90;;;;;;4960214;28;20148;-45
2022/12/28 03:39:14;;;;;;;21.88;19.58;;;6.30;99.90;;;;;;4940479;28;20208;-50
2022/12/28 03:41:51;;;;;;;24.88;21.08;;;6.30;99.90;;;;;;4958205;28;20061;-47
2022/12/28 03:44:26;;;;;;;22.40;18.90;;;6.10;99.90;;;;;;4952648;28;20145;-49
2022/12/28 03:46:58;;;;;;;25.77;19.38;;;6.10;99.90;;;;;;4961206;28;20470;-48
2022/12/28 03:49:24;;;;;;;26.38;20.27;;;6.40;99.90;;;;;;4956874;28;20058;-49
2022/12/28 03:51:51;;;;;;;25.50;21.23;;;6.40;99.90;;;;;;4960068;28;20054;-48
2022/12/28 03:54:17;;;;;;;23.65;21.15;;;6.40;99.90;;;;;;5015788;28;20099;-51
2022/12/28 03:56:49;;;;;;;23.02;20.58;;;6.20;99.90;;;;;;5107715;27;20063;-44
2022/12/28 03:59:15;;;;;;;27.83;21.33;;;6.30;99.90;;;;;;5111874;27;20930;-51
2022/12/28 04:01:41;;;;;;;27.15;21.90;;;6.20;99.90;;;;;;5108134;27;20039;-48
2022/12/28 04:04:07;;;;;;;25.65;20.63;;;6.40;99.90;;;;;;5111843;27;20821;-48
2022/12/28 04:06:33;;;;;;;25.00;21.75;;;6.40;99.90;;;;;;5113519;27;20140;-47
2022/12/28 04:08:59;;;;;;;26.80;21.80;;;6.20;99.90;;;;;;5091675;27;20890;-48
2022/12/28 04:11:24;;;;;;;25.50;22.92;;;6.30;99.90;;;;;;5116355;27;20587;-47
2022/12/28 04:13:50;;;;;;;27.20;21.17;;;6.50;99.90;;;;;;5084030;27;20034;-50
2022/12/28 04:16:16;;;;;;;28.05;24.85;;;6.60;99.90;;;;;;5104027;27;20130;-47
2022/12/28 04:18:42;;;;;;;29.50;21.48;;;6.60;99.90;;;;;;5110791;27;20047;-50
2022/12/28 04:21:09;;;;;;;25.13;21.48;;;6.30;99.90;;;;;;5112727;27;20046;-47
2022/12/28 04:23:35;;;;;;;28.15;21.60;;;6.70;99.90;;;;;;5115902;27;20038;-49
2022/12/28 04:26:06;;;;;;;28.13;22.65;;;6.50;99.90;;;;;;5107512;27;20108;-47
2022/12/28 04:28:32;;;;;;;27.52;21.70;;;6.70;99.90;;;;;;5109069;27;20078;-50
2022/12/28 04:30:59;;;;;;;25.17;22.35;;;6.60;99.90;;;;;;5099643;27;20084;-48
2022/12/28 04:33:25;;;;;;;30.80;23.63;;;6.80;99.90;;;;;;5111763;27;20142;-50
2022/12/28 04:35:52;;;;;;;27.80;24.58;;;6.90;99.90;;;;;;5107933;27;20055;-47
2022/12/28 04:38:19;;;;;;;28.33;23.27;;;6.90;99.90;;;;;;5114404;27;20066;-45
2022/12/28 04:40:44;;;;;;;27.25;23.80;;;6.80;99.90;;;;;;5112712;27;20202;-44
2022/12/28 04:43:10;;;;;;;23.67;21.17;;;6.80;99.90;;;;;;5110790;27;20460;-48
2022/12/28 04:45:36;;;;;;;25.20;22.63;;;7.00;99.90;;;;;;5111803;27;20043;-52
2022/12/28 04:48:02;;;;;;;32.17;23.73;;;6.80;99.90;;;;;;5112630;27;20046;-47
2022/12/28 04:50:28;;;;;;;29.95;23.88;;;6.80;99.90;;;;;;5107324;27;20134;-45
2022/12/28 04:52:54;;;;;;;23.77;21.20;;;6.90;99.90;;;;;;5105273;27;20150;-48
2022/12/28 04:55:20;;;;;;;24.23;20.20;;;7.20;99.90;;;;;;5107706;27;20043;-47
2022/12/28 04:57:46;;;;;;;24.90;21.58;;;6.90;99.90;;;;;;5111715;27;20043;-48
2022/12/28 05:00:13;;;;;;;24.70;22.02;;;7.20;99.90;;;;;;5071570;27;20057;-51
2022/12/28 05:02:39;;;;;;;23.83;21.25;;;7.20;99.90;;;;;;5110007;27;20045;-50
2022/12/28 05:05:05;;;;;;;26.77;21.50;;;7.20;99.90;;;;;;5096382;27;20159;-51
2022/12/28 05:07:30;;;;;;;24.70;22.02;;;7.20;99.90;;;;;;5100638;27;20043;-46
2022/12/28 05:09:56;;;;;;;23.33;19.90;;;7.20;99.90;;;;;;5099140;27;20050;-48
2022/12/28 05:12:22;;;;;;;24.50;21.13;;;7.00;99.90;;;;;;5111349;27;20043;-48
2022/12/28 05:14:47;;;;;;;23.90;20.45;;;7.10;99.90;;;;;;5115848;27;20126;-48
2022/12/28 05:17:13;;;;;;;22.75;19.48;;;7.10;99.90;;;;;;5115645;27;20564;-48
2022/12/28 05:19:39;;;;;;;23.83;21.10;;;7.40;99.90;;;;;;5110900;27;20422;-49
2022/12/28 05:22:10;;;;;;;25.33;18.70;;;7.40;99.90;;;;;;5110846;27;20354;-48
2022/12/28 05:24:37;;;;;;;21.83;19.83;;;7.30;99.90;;;;;;5116575;27;20043;-48
2022/12/28 05:27:03;;;;;;;24.92;19.83;;;7.50;99.90;;;;;;5092812;27;20108;-50
2022/12/28 05:29:28;;;;;;;23.73;19.15;;;7.30;99.90;;;;;;5114204;27;20047;-48
2022/12/28 05:31:54;;;;;;;22.55;18.75;;;7.50;99.90;;;;;;5105432;27;20050;-49
2022/12/28 05:34:19;;;;;;;20.65;18.58;;;7.50;99.90;;;;;;5127556;27;20046;-49
2022/12/28 05:36:45;;;;;;;22.92;19.88;;;7.30;99.90;;;;;;5131051;27;20050;-46
2022/12/28 05:39:11;;;;;;;22.13;17.42;;;7.40;99.90;;;;;;5122879;27;20092;-48
2022/12/28 05:41:36;;;;;;;20.58;18.42;;;7.40;99.90;;;;;;5125261;27;20121;-49
2022/12/28 05:44:02;;;;;;;20.02;18.08;;;7.30;99.90;;;;;;5123487;27;20070;-47
2022/12/28 05:46:30;;;;;;;19.40;17.58;;;7.50;99.90;;;;;;5094555;27;20074;-47
2022/12/28 05:48:56;;;;;;;20.67;17.27;;;7.40;99.90;;;;;;5115847;27;20043;-47
2022/12/28 05:51:24;;;;;;;20.65;17.55;;;7.50;99.90;;;;;;5119354;27;20114;-49
2022/12/28 05:53:50;;;;;;;19.77;17.70;;;7.60;99.90;;;;;;5095129;27;20538;-49
2022/12/28 05:56:25;;;;;;;20.80;18.83;;;7.40;99.90;;;;;;5115359;27;20047;-48
2022/12/28 05:58:56;;;;;;;22.77;18.90;;;7.60;99.90;;;;;;5115333;27;20095;-46
2022/12/28 06:01:24;;;;;;;22.40;19.05;;;7.50;99.90;;;;;;5114677;27;20407;-50
2022/12/28 06:04:16;;;;;;;19.80;17.60;;;7.50;99.90;;;;;;5111086;27;20051;-51
2022/12/28 06:06:43;;;;;;;23.00;17.88;;;7.60;99.90;;;;;;5110084;27;20680;-48
2022/12/28 06:09:09;;;;;;;20.88;18.73;;;7.60;99.90;;;;;;5093473;27;20043;-46
2022/12/28 06:11:34;;;;;;;21.85;19.55;;;7.70;99.90;;;;;;5110270;27;20049;-47
2022/12/28 06:14:02;;;;;;;22.70;20.40;;;7.60;99.90;;;;;;5118886;27;20119;-45
2022/12/28 06:16:30;;;;;;;21.88;19.40;;;7.70;99.90;;;;;;5113292;27;20050;-45
2022/12/28 06:18:56;;;;;;;21.70;19.42;;;7.60;99.90;;;;;;5120414;27;20125;-48
2022/12/28 06:21:30;;;;;;;22.65;20.40;;;7.70;99.90;;;;;;5114971;27;20493;-51
2022/12/28 06:23:57;;;;;;;22.35;19.42;;;7.50;99.90;;;;;;5117025;27;20046;-46
2022/12/28 06:26:24;;;;;;;24.13;21.90;;;7.60;99.90;;;;;;5121851;27;20062;-45
2022/12/28 06:28:50;;;;;;;22.80;20.35;;;7.60;99.90;;;;;;5106702;27;20039;-45
2022/12/28 06:31:21;;;;;;;23.55;20.27;;;7.70;99.90;;;;;;5113034;27;20070;-47
2022/12/28 06:33:47;;;;;;;33.55;21.17;;;7.80;99.90;;;;;;5100455;27;20150;-48
2022/12/28 06:36:28;;;;;;;24.38;19.80;;;7.80;99.90;;;;;;5106445;27;20043;-45
2022/12/28 06:38:56;;;;;;;25.48;21.58;;;7.60;99.90;;;;;;5112424;27;20050;-46
2022/12/28 06:41:22;;;;;;;22.20;19.23;;;7.50;99.90;;;;;;5108873;27;20047;-45
2022/12/28 06:43:49;;;;;;;23.65;19.55;;;7.50;99.90;;;;;;5114073;27;20043;-45
2022/12/28 06:46:16;;;;;;;21.05;18.83;;;7.70;99.90;;;;;;5108773;27;20105;-45
2022/12/28 06:48:42;;;;;;;23.80;20.40;;;7.70;99.90;;;;;;5107624;27;20039;-49
2022/12/28 06:51:14;;;;;;;21.98;19.25;;;7.70;99.90;;;;;;5108220;27;20058;-47
2022/12/28 06:53:41;;;;;;;22.77;19.15;;;7.60;99.90;;;;;;5111288;27;20067;-48
2022/12/28 06:56:17;;;;;;;24.90;19.67;;;7.60;99.90;;;;;;5111034;27;20051;-49
2022/12/28 06:58:44;;;;;;;22.48;19.65;;;7.60;99.90;;;;;;5112898;27;20117;-48
2022/12/28 07:01:18;;;;;;;21.52;18.17;;;7.70;99.90;;;;;;5072435;27;20050;-49
2022/12/28 07:03:44;;;;;;;;;;;7.80;99.90;;;;;;5112254;27;21166;-49
2022/12/28 07:06:11;;;;;;;22.63;18.25;;;7.90;99.90;;;;;;5110577;27;20618;-50
2022/12/28 07:08:37;;;;;;;21.40;18.08;;;7.90;99.90;;;;;;5116870;27;20046;-46
2022/12/28 07:11:29;;;;;;;23.00;18.38;;;8.00;99.90;;;;;;5115663;27;20046;-45
2022/12/28 07:13:55;;;;;;;19.70;16.80;;;8.00;99.90;;;;;;5118989;27;20127;-48
2022/12/28 07:16:22;;;;;;;22.10;18.30;;;7.70;99.90;;;;;;5115567;27;20039;-45
2022/12/28 07:18:48;;;;;;;22.33;17.40;;;7.80;99.90;;;;;;5116884;27;20130;-47
2022/12/28 07:21:20;;;;;;;19.00;17.00;;;7.70;99.90;;;;;;5109615;27;20046;-48
2022/12/28 07:23:47;;;;;;;19.08;17.05;;;7.70;99.90;;;;;;5092532;27;20051;-47
2022/12/28 07:26:16;;;;;;;22.45;16.63;;;7.90;99.90;;;;;;5115713;27;20039;-46
2022/12/28 07:28:44;;;;;;;18.38;16.58;;;7.80;99.90;;;;;;5109295;27;20046;-49
2022/12/28 07:31:15;;;;;;;21.60;17.40;;;7.80;99.90;;;;;;5115360;27;20450;-48
2022/12/28 07:33:42;;;;;;;19.67;17.13;;;7.80;99.90;;;;;;5114428;27;20051;-45
2022/12/28 07:36:12;;;;;;;20.23;17.00;;;8.00;99.90;;;;;;5115174;27;20075;-48
2022/12/28 07:38:39;;;;;;;21.85;18.25;;;7.80;99.90;;;;;;5111144;27;20043;-49
2022/12/28 07:41:17;;;;;;;20.90;18.00;;;7.90;99.90;;;;;;5115573;27;20042;-51
2022/12/28 07:43:43;;;;;;;21.42;19.23;;;8.00;99.90;;;;;;5116523;27;20444;-45
2022/12/28 07:46:17;;;;;;;21.00;18.80;;;7.90;99.90;;;;;;5109073;27;20043;-49
2022/12/28 07:48:44;;;;;;;22.50;18.58;;;8.10;99.90;;;;;;5106821;27;20047;-51
2022/12/28 07:51:17;;;;;;;21.13;18.63;;;8.00;99.90;;;;;;5110192;27;20397;-46
2022/12/28 07:53:45;;;;;;;20.88;18.85;;;8.10;99.90;;;;;;5108712;27;20043;-48
2022/12/28 07:56:11;;;;;;;19.95;17.88;;;8.10;99.90;;;;;;5108194;27;20238;-46
2022/12/28 07:58:37;;;;;;;25.40;19.27;;;8.10;99.90;;;;;;5076959;27;20438;-45
2022/12/28 08:01:03;;;;;;;25.52;18.98;;;8.10;99.90;;;;;;5110607;27;20115;-46
2022/12/28 08:03:29;;;;;;;22.95;19.17;;;8.10;99.90;;;;;;5106107;27;20571;-50
2022/12/28 08:05:54;;;;;;;22.27;19.17;;;8.10;99.90;;;;;;5104169;27;20050;-50
2022/12/28 08:08:20;;;;;;;22.63;18.92;;;8.00;99.90;;;;;;5107695;27;20043;-52
2022/12/28 08:10:46;;;;;;;23.45;18.70;;;7.90;99.90;;;;;;5111062;27;20046;-45
2022/12/28 08:13:11;;;;;;;23.85;18.88;;;8.00;99.90;;;;;;5094838;27;20039;-46
2022/12/28 08:15:37;;;;;;;21.50;17.25;;;7.90;99.90;;;;;;5096547;27;20076;-50
2022/12/28 08:18:03;;;;;;;20.52;16.88;;;8.10;99.90;;;;;;5108916;27;20664;-46
2022/12/28 08:20:28;;;;;;;21.05;16.17;;;8.10;99.90;;;;;;5089896;27;20483;-47
2022/12/28 08:22:54;;;;;;;16.55;14.85;;;7.90;99.90;;;;;;5106800;27;20058;-47
2022/12/28 08:25:20;;;;;;;14.15;12.65;;;8.10;99.90;;;;;;5095539;27;20047;-45
2022/12/28 08:27:45;;;;;;;14.38;11.50;;;8.00;99.90;;;;;;5090448;27;20103;-48
2022/12/28 08:30:11;;;;;;;11.35;10.15;;;7.90;99.90;;;;;;5095632;27;20396;-49
2022/12/28 08:32:37;;;;;;;13.75;10.95;;;8.20;99.90;;;;;;5105161;27;20603;-45
2022/12/28 08:35:04;;;;;;;12.85;11.07;;;7.90;99.90;;;;;;5113561;27;20047;-49
2022/12/28 08:37:29;;;;;;;14.40;11.55;;;8.20;99.90;;;;;;5078424;27;20240;-46
2022/12/28 08:39:55;;;;;;;13.55;11.57;;;7.90;99.90;;;;;;5112417;27;20535;-47
2022/12/28 08:42:21;;;;;;;13.85;12.20;;;7.90;99.90;;;;;;5102756;27;20483;-49
2022/12/28 08:44:46;;;;;;;17.70;13.63;;;7.90;99.90;;;;;;5092988;27;20047;-49
2022/12/28 08:47:12;;;;;;;18.45;14.48;;;8.00;99.90;;;;;;5102665;27;20043;-45
2022/12/28 08:49:37;;;;;;;18.17;14.43;;;8.10;99.90;;;;;;5091675;27;20216;-47
2022/12/28 08:52:03;;;;;;;19.35;14.73;;;8.10;99.90;;;;;;5086803;27;20448;-46
2022/12/28 08:54:29;;;;;;;21.02;17.42;;;8.20;99.90;;;;;;5105754;27;20365;-44
2022/12/28 08:56:55;;;;;;;25.40;17.73;;;8.20;99.90;;;;;;5107737;27;20464;-49
2022/12/28 08:59:20;;;;;;;21.63;18.30;;;7.90;99.90;;;;;;5105443;27;20460;-45
2022/12/28 09:01:46;;;;;;;27.15;19.73;;;7.90;99.90;;;;;;5110274;27;20479;-47
2022/12/28 09:04:19;;;;;;;25.52;18.30;;;8.00;99.90;;;;;;5103840;27;20503;-51
2022/12/28 09:06:45;;;;;;;22.65;17.50;;;7.90;99.90;;;;;;5107682;27;20070;-45
2022/12/28 09:09:13;;;;;;;23.33;18.52;;;8.20;99.90;;;;;;5091708;27;20580;-45
2022/12/28 09:11:40;;;;;;;25.83;17.92;;;8.00;99.90;;;;;;5105533;27;20050;-47
2022/12/28 09:14:08;;;;;;;24.75;17.48;;;8.00;99.90;;;;;;5110866;27;20560;-45
2022/12/28 09:16:35;;;;;;;20.27;15.45;;;8.30;99.90;;;;;;5097727;27;20095;-48
2022/12/28 09:19:03;;;;;;;24.52;15.80;;;8.10;99.90;;;;;;5111513;27;20663;-50
2022/12/28 09:21:31;;;;;;;20.55;16.15;;;8.10;99.90;;;;;;5110663;27;20761;-45
2022/12/28 09:23:57;;;;;;;24.67;17.98;;;8.40;99.90;;;;;;5106083;27;20171;-50
2022/12/28 09:26:30;;;;;;;22.45;17.50;;;8.30;99.90;;;;;;5106757;27;20572;-48
2022/12/28 09:28:58;;;;;;;22.65;16.98;;;8.10;99.90;;;;;;5116412;27;20051;-48
2022/12/28 09:31:26;;;;;;;23.67;17.55;;;8.20;99.90;;;;;;5103990;27;20572;-47
2022/12/28 09:33:57;;;;;;;25.45;18.42;;;8.40;99.90;;;;;;5109772;27;20104;-49
2022/12/28 09:36:24;;;;;;;28.20;19.42;;;8.10;99.90;;;;;;5106736;27;20447;-46
2022/12/28 09:38:50;;;;;;;30.08;21.17;;;8.40;99.90;;;;;;5105588;27;20051;-47
2022/12/28 09:41:29;;;;;;;29.63;21.00;;;8.50;99.90;;;;;;5105292;27;20191;-47
2022/12/28 09:44:15;;;;;;;30.13;22.02;;;8.50;99.90;;;;;;5112833;27;20047;-49
2022/12/28 09:46:50;;;;;;;25.70;19.45;;;8.20;99.90;;;;;;5107947;27;20066;-48
2022/12/28 09:49:19;;;;;;;26.13;19.50;;;8.50;99.90;;;;;;5104447;27;22327;-48
2022/12/28 09:52:13;;;;;;;20.70;18.45;;;8.30;99.90;;;;;;5102603;27;20616;-51
2022/12/28 09:54:39;;;;;;;23.58;18.98;;;8.50;99.90;;;;;;5049574;28;20130;-46
2022/12/28 09:57:12;;;;;;;26.30;18.65;;;8.40;99.90;;;;;;5046534;28;20461;-49
2022/12/28 09:59:38;;;;;;;20.35;17.85;;;8.60;99.90;;;;;;5054902;28;20049;-47
2022/12/28 10:02:13;;;;;;;25.85;19.38;;;8.40;99.90;;;;;;5054535;28;20675;-52
2022/12/28 10:04:38;;;;;;;22.30;17.75;;;8.50;99.90;;;;;;5050988;28;20164;-49
2022/12/28 10:07:08;;;;;;;23.40;18.50;;;8.50;99.90;;;;;;5059793;28;20880;-52
2022/12/28 10:09:33;;;;;;;20.92;18.17;;;8.70;99.90;;;;;;5059419;28;20056;-51
2022/12/28 10:12:14;;;;;;;20.75;17.20;;;8.70;99.90;;;;;;5050411;28;20308;-47
2022/12/28 10:14:41;;;;;;;20.27;17.20;;;8.60;99.90;;;;;;5060206;28;20051;-51
2022/12/28 10:17:10;;;;;;;19.40;17.13;;;8.50;99.90;;;;;;5063745;28;20155;-45
2022/12/28 10:19:36;;;;;;;20.15;17.48;;;8.80;99.90;;;;;;5059634;28;20070;-48
2022/12/28 10:22:04;;;;;;;18.52;16.65;;;8.50;99.90;;;;;;5035256;28;20431;-51
2022/12/28 10:24:30;;;;;;;19.33;17.25;;;8.60;99.90;;;;;;5054556;28;20055;-46
2022/12/28 10:27:01;;;;;;;23.10;17.52;;;8.70;99.90;;;;;;5050749;28;20408;-50
2022/12/28 10:29:29;;;;;;;19.33;16.85;;;8.80;99.90;;;;;;5049747;28;20055;-47
2022/12/28 10:32:03;;;;;;;21.02;17.05;;;8.60;99.90;;;;;;5093081;27;20417;-48
2022/12/28 10:34:31;;;;;;;23.67;17.17;;;8.60;99.90;;;;;;5110337;27;20337;-50
2022/12/28 10:37:12;;;;;;;17.77;15.63;;;8.80;99.90;;;;;;5121118;27;20101;-49
2022/12/28 10:39:38;;;;;;;19.15;16.98;;;8.60;99.90;;;;;;5125391;27;20345;-52
2022/12/28 10:42:04;;;;;;;19.00;16.38;;;8.90;99.90;;;;;;5127831;27;20157;-48
2022/12/28 10:44:31;;;;;;;18.63;15.63;;;8.70;99.90;;;;;;5134693;27;20039;-51
2022/12/28 10:47:05;;;;;;;19.73;14.85;;;8.60;99.90;;;;;;5124312;27;20043;-47
2022/12/28 10:49:34;;;;;;;17.58;15.43;;;8.60;99.90;;;;;;5101523;27;20047;-49
2022/12/28 10:52:01;;;;;;;16.92;14.32;;;8.60;99.90;;;;;;5116450;27;20540;-47
2022/12/28 10:54:31;;;;;;;18.50;14.52;;;8.90;99.90;;;;;;5119598;27;20482;-49
2022/12/28 10:56:56;;;;;;;19.33;13.48;;;8.90;99.90;;;;;;5114865;27;20437;-48
2022/12/28 10:59:28;;;;;;;13.38;11.77;;;8.90;99.90;;;;;;5089923;27;20078;-50
2022/12/28 11:02:12;;;;;;;15.80;12.90;;;8.60;99.90;;;;;;5119988;27;20078;-49
2022/12/28 11:04:55;;;;;;;16.60;13.40;;;8.70;99.90;;;;;;5114240;27;20153;-45
2022/12/28 11:07:47;;;;;;;14.65;13.05;;;8.80;99.90;;;;;;5120298;27;20412;-49
2022/12/28 11:10:23;;;;;;;16.95;14.55;;;8.60;99.90;;;;;;5129453;27;20055;-46
2022/12/28 11:12:54;;;;;;;17.88;13.73;;;8.60;99.90;;;;;;5111823;27;20073;-50
2022/12/28 11:15:23;;;;;;;14.48;11.63;;;8.80;99.90;;;;;;5111104;27;20077;-49
2022/12/28 11:18:14;;;;;;;14.52;12.10;;;8.90;99.90;;;;;;5121893;27;20103;-49
2022/12/28 11:20:44;;;;;;;15.77;11.43;;;8.90;99.90;;;;;;5120729;27;20054;-49
2022/12/28 11:23:16;;;;;;;14.05;11.32;;;8.70;99.90;;;;;;5116184;27;20465;-52
2022/12/28 11:25:42;;;;;;;11.55;10.45;;;8.70;99.90;;;;;;5097251;27;20046;-46
2022/12/28 11:28:15;;;;;;;11.88;10.27;;;8.80;99.90;;;;;;5121016;27;20066;-50
2022/12/28 11:30:42;;;;;;;10.95;9.85;;;8.90;99.90;;;;;;5116526;27;20038;-48
2022/12/28 11:33:28;;;;;;;12.38;10.77;;;9.00;99.90;;;;;;5099487;27;20116;-46
2022/12/28 11:35:55;;;;;;;12.35;10.90;;;8.70;99.90;;;;;;5093758;27;20425;-46
2022/12/28 11:38:56;;;;;;;12.55;11.25;;;8.90;99.90;;;;;;5102659;27;20051;-51
2022/12/28 11:41:29;;;;;;;11.75;10.55;;;8.70;99.90;;;;;;5030873;28;20536;-49
2022/12/28 11:44:03;;;;;;;12.65;11.43;;;8.90;99.90;;;;;;5031796;28;20665;-47
2022/12/28 11:46:29;;;;;;;13.60;11.07;;;8.70;99.90;;;;;;5018621;28;20185;-48
2022/12/28 11:49:28;;;;;;;15.65;12.20;;;8.70;99.90;;;;;;5033972;28;20572;-46
2022/12/28 11:52:16;;;;;;;13.70;12.30;;;8.90;99.90;;;;;;5032596;28;20086;-48
2022/12/28 11:54:52;;;;;;;13.63;11.77;;;8.60;99.90;;;;;;5034154;28;20052;-49
2022/12/28 11:57:42;;;;;;;15.63;11.68;;;8.90;99.90;;;;;;5030601;28;20055;-49
2022/12/28 12:00:19;;;;;;;12.98;11.70;;;8.60;99.90;;;;;;5037268;28;20048;-49
2022/12/28 12:02:55;;;;;;;14.32;12.30;;;8.70;99.90;;;;;;5009261;28;20055;-47
2022/12/28 12:05:36;;;;;;;11.85;10.65;;;8.60;99.90;;;;;;5027788;28;20566;-49
2022/12/28 12:08:21;;;;;;;14.95;11.90;;;8.60;99.90;;;;;;5036302;28;20514;-47
2022/12/28 12:11:06;;;;;;;15.80;11.32;;;8.70;99.90;;;;;;5033408;28;20048;-45
2022/12/28 12:13:44;;;;;;;16.08;12.88;;;8.80;99.90;;;;;;5034115;28;20372;-49
2022/12/28 12:16:31;;;;;;;13.93;12.38;;;8.80;99.90;;;;;;5093785;27;20054;-48
2022/12/28 12:18:58;;;;;;;12.77;11.45;;;8.60;99.90;;;;;;5108422;27;20051;-50
2022/12/28 12:21:31;;;;;;;13.75;12.35;;;8.50;99.90;;;;;;5100847;27;20103;-47
2022/12/28 12:24:09;;;;;;;13.02;10.65;;;8.60;99.90;;;;;;5112819;27;20043;-50
2022/12/28 12:26:43;;;;;;;13.75;11.43;;;8.60;99.90;;;;;;5103705;27;20053;-51
2022/12/28 12:29:17;;;;;;;;;;;8.60;99.90;;;;;;5110793;27;20059;-49
2022/12/28 12:31:47;;;;;;;13.23;10.18;;;8.60;99.90;;;;;;5108832;27;20502;-52
2022/12/28 12:34:25;;;;;;;10.88;9.70;;;8.80;99.90;;;;;;5112408;27;20527;-49
2022/12/28 12:37:17;;;;;;;10.18;9.18;;;8.90;99.90;;;;;;5118875;27;20420;-51
2022/12/28 12:40:01;;;;;;;9.27;8.35;;;8.70;99.90;;;;;;5101074;27;20046;-49
2022/12/28 12:42:36;;;;;;;8.30;7.57;;;8.60;99.90;;;;;;5113248;27;20765;-51
2022/12/28 12:45:26;;;;;;;9.38;7.50;;;8.60;99.90;;;;;;5090358;27;20213;-45
2022/12/28 12:47:54;;;;;;;8.38;7.05;;;8.70;99.90;;;;;;5114314;27;20043;-47
2022/12/28 12:50:42;;;;;;;8.05;7.20;;;8.60;99.90;;;;;;5112697;27;20043;-47
2022/12/28 12:53:13;;;;;;;8.70;7.40;;;8.80;99.90;;;;;;5112912;27;20131;-49
2022/12/28 12:56:12;;;;;;;7.30;6.70;;;8.60;99.90;;;;;;5119530;27;20039;-47
2022/12/28 12:58:40;;;;;;;11.05;7.43;;;8.60;99.90;;;;;;5111123;27;20628;-49
2022/12/28 13:01:44;;;;;;;6.55;5.85;;;8.70;99.90;;;;;;5106079;27;20121;-46
2022/12/28 13:04:21;;;;;;;;;;;8.90;99.90;;;;;;5026790;28;20313;-48
2022/12/28 13:06:55;;;;;;;5.82;5.30;;;8.80;99.90;;;;;;5027247;28;19983;-45
2022/12/28 13:09:23;;;;;;;6.57;5.10;;;8.70;99.90;;;;;;5017782;28;20052;-45
2022/12/28 13:11:50;;;;;;;6.65;5.50;;;8.80;99.90;;;;;;5023374;28;20049;-46
2022/12/28 13:14:19;;;;;;;7.68;4.82;;;8.80;99.90;;;;;;5019773;28;20486;-48
2022/12/28 13:16:52;;;;;;;5.35;4.85;;;8.70;99.90;;;;;;5019542;28;20125;-51
2022/12/28 13:19:22;;;;;;;5.65;4.97;;;8.80;99.90;;;;;;5001170;28;20483;-51
2022/12/28 13:21:48;;;;;;;5.03;4.53;;;8.70;99.90;;;;;;5008217;28;20399;-51
2022/12/28 13:24:29;;;;;;;10.13;5.30;;;8.80;99.90;;;;;;5028704;28;20040;-47